Terminal Aerodrome Forecast
Issued by NWS

Home | Current Version | Previous Version | Text Only | Print | Product List | Glossary On
Versions: 1 2 3 4 5 6 7 8 9 10 11 12 13
000
FTUS41 KPBZ 192300
TAFAGC
TAF
KAGC 192320Z 2000/2024 03004KT P6SM BKN250
     FM201500 13007KT P6SM SKC=

USA.gov is the U.S. government's official web portal to all federal, state and local government web resources and services.